createdAt,value
2019-06-15T00:00:26.360Z,10.38
2019-06-15T00:03:20.981Z,10.80
2019-06-15T00:06:16.252Z,11.43
2019-06-15T00:09:11.339Z,11.30
2019-06-15T00:12:08.693Z,11.60
2019-06-15T00:15:02.794Z,11.38
2019-06-15T00:17:57.327Z,12.45
2019-06-15T00:20:51.886Z,11.93
2019-06-15T00:23:46.317Z,11.43
2019-06-15T00:26:42.419Z,13.18
2019-06-15T00:29:37.140Z,12.13
2019-06-15T00:32:31.552Z,12.43
2019-06-15T00:35:26.175Z,13.00
2019-06-15T00:38:20.243Z,13.15
2019-06-15T00:41:14.621Z,15.75
2019-06-15T00:44:08.813Z,15.58
2019-06-15T00:47:03.424Z,15.75
2019-06-15T00:50:00.074Z,13.78
2019-06-15T00:52:54.401Z,12.63
2019-06-15T00:55:48.982Z,12.85
2019-06-15T00:58:45.029Z,12.47
2019-06-15T01:01:39.523Z,11.08
2019-06-15T01:04:35.422Z,11.12
2019-06-15T01:07:29.795Z,10.30
2019-06-15T01:10:25.770Z,9.63
2019-06-15T01:13:20.629Z,10.70
2019-06-15T01:16:14.964Z,10.20
2019-06-15T01:19:10.885Z,10.10
2019-06-15T01:22:05.553Z,10.40
2019-06-15T01:25:05.667Z,11.57
2019-06-15T01:27:56.786Z,9.80
2019-06-15T01:30:52.176Z,10.68
2019-06-15T01:33:46.713Z,10.48
2019-06-15T01:36:42.424Z,12.88
2019-06-15T01:39:38.199Z,9.90
2019-06-15T01:42:32.961Z,10.18
2019-06-15T01:45:30.598Z,10.13
2019-06-15T01:48:25.070Z,9.28
2019-06-15T01:51:20.799Z,9.38
2019-06-15T01:54:16.393Z,10.25
2019-06-15T01:57:10.948Z,10.58
2019-06-15T02:00:08.508Z,10.38
2019-06-15T02:03:03.059Z,11.10
2019-06-15T02:05:57.432Z,13.13
2019-06-15T02:08:51.585Z,13.25
2019-06-15T02:11:45.689Z,11.95
2019-06-15T02:14:41.904Z,11.78
2019-06-15T02:17:37.000Z,11.50
2019-06-15T02:20:31.109Z,9.98
2019-06-15T02:23:25.352Z,9.78
2019-06-15T02:26:19.497Z,9.88
2019-06-15T02:29:14.190Z,10.30
2019-06-15T02:32:08.647Z,10.48
2019-06-15T02:35:04.644Z,9.58
2019-06-15T02:38:00.924Z,10.85
2019-06-15T02:40:55.403Z,9.93
2019-06-15T02:43:50.049Z,13.75
2019-06-15T02:46:45.750Z,15.55
2019-06-15T02:49:40.371Z,11.70
2019-06-15T02:52:35.514Z,12.05
2019-06-15T02:55:31.886Z,14.47
2019-06-15T02:58:26.049Z,12.93
2019-06-15T03:01:20.932Z,12.75
2019-06-15T03:04:15.617Z,13.70
2019-06-15T03:07:15.082Z,11.57
2019-06-15T03:10:09.367Z,11.63
2019-06-15T03:13:04.630Z,11.85
2019-06-15T03:15:59.183Z,12.40
2019-06-15T03:18:53.462Z,12.23
2019-06-15T03:21:49.546Z,13.05
2019-06-15T03:24:44.102Z,12.60
2019-06-15T03:27:38.909Z,12.43
2019-06-15T03:30:34.913Z,11.50
2019-06-15T03:33:31.571Z,12.80
2019-06-15T03:36:25.822Z,11.55
2019-06-15T03:39:20.644Z,14.75
2019-06-15T03:42:14.895Z,14.03
2019-06-15T03:45:11.512Z,13.10
2019-06-15T03:48:07.465Z,13.08
2019-06-15T03:51:02.175Z,13.62
2019-06-15T03:53:57.800Z,11.83
2019-06-15T03:56:53.204Z,13.18
2019-06-15T03:59:47.465Z,11.57
2019-06-15T04:02:42.129Z,11.70
2019-06-15T04:05:36.839Z,12.33
2019-06-15T04:08:31.956Z,13.68
2019-06-15T04:11:26.333Z,12.95
2019-06-15T04:14:21.016Z,12.78
2019-06-15T04:17:17.003Z,13.75
2019-06-15T04:20:12.503Z,14.13
2019-06-15T04:23:07.350Z,17.00
2019-06-15T04:26:03.024Z,14.07
2019-06-15T04:28:58.710Z,14.90
2019-06-15T04:31:53.119Z,17.52
2019-06-15T04:34:47.708Z,14.70
2019-06-15T04:37:44.706Z,15.30
2019-06-15T04:40:40.775Z,14.03
2019-06-15T04:43:38.785Z,14.60
2019-06-15T04:46:34.210Z,13.58
2019-06-15T04:49:29.975Z,13.30
2019-06-15T04:53:29.844Z,14.47
2019-06-15T04:56:22.247Z,16.25
2019-06-15T04:59:20.790Z,15.53
2019-06-15T05:02:17.680Z,14.03
2019-06-15T05:05:15.830Z,14.83
2019-06-15T05:08:14.004Z,14.63
2019-06-15T05:11:52.238Z,11.30
2019-06-15T05:15:37.162Z,8.90
2019-06-15T05:18:31.004Z,10.85
2019-06-15T05:21:28.370Z,10.90
2019-06-15T05:24:23.166Z,8.73
2019-06-15T05:27:18.869Z,7.90
2019-06-15T05:30:27.036Z,8.35
2019-06-15T05:33:49.201Z,8.73
2019-06-15T05:36:45.956Z,7.95
2019-06-15T05:40:26.135Z,7.85
2019-06-15T08:25:28.670Z,7.12
2019-06-15T08:31:42.964Z,6.95
2019-06-15T08:34:38.125Z,7.97
2019-06-15T08:37:35.901Z,7.62
2019-06-15T08:40:43.769Z,6.58
2019-06-15T08:43:41.177Z,7.17
2019-06-15T08:46:45.140Z,7.50
2019-06-15T08:49:44.142Z,8.18
2019-06-15T08:53:25.973Z,7.87
2019-06-15T08:56:25.800Z,7.80
2019-06-15T09:00:07.032Z,6.72
2019-06-15T09:03:17.787Z,7.20
2019-06-15T09:06:33.038Z,7.00
2019-06-15T09:16:28.258Z,7.20
2019-06-15T09:29:59.871Z,6.92
2019-06-15T09:32:59.553Z,6.87
2019-06-15T09:35:57.358Z,7.87
2019-06-15T09:38:54.640Z,7.08
2019-06-15T09:42:06.419Z,7.50
2019-06-15T09:45:18.788Z,8.50
2019-06-15T09:48:30.821Z,8.60
2019-06-15T09:51:43.622Z,8.20
2019-06-15T09:54:39.405Z,7.97
2019-06-15T09:57:39.580Z,10.15
2019-06-15T10:03:42.749Z,8.35
2019-06-15T10:07:13.922Z,7.67
2019-06-15T10:10:39.831Z,7.92
2019-06-15T10:13:48.343Z,7.92
2019-06-15T10:16:45.240Z,8.15
2019-06-15T10:19:41.022Z,8.25
2019-06-15T10:22:41.315Z,8.40
2019-06-15T10:25:37.416Z,8.05
2019-06-15T10:28:33.725Z,7.92
2019-06-15T10:31:28.937Z,9.58
2019-06-15T10:34:26.098Z,11.10
2019-06-15T10:37:26.767Z,8.68
2019-06-15T10:40:23.832Z,8.53
2019-06-15T10:43:32.817Z,9.20
2019-06-15T10:46:28.759Z,9.28
2019-06-15T10:49:25.687Z,8.83
2019-06-15T10:52:26.671Z,9.20
2019-06-15T10:55:31.389Z,8.45
2019-06-15T10:58:34.962Z,9.15
2019-06-15T11:04:37.175Z,11.97
2019-06-15T11:07:48.176Z,8.45
2019-06-15T11:11:11.060Z,7.90
2019-06-15T11:14:12.748Z,9.13
2019-06-15T11:17:26.258Z,8.08
2019-06-15T11:23:42.362Z,8.73
2019-06-15T11:27:17.925Z,8.63
2019-06-15T11:31:03.215Z,8.43
2019-06-15T11:34:06.404Z,8.78
2019-06-15T11:37:05.148Z,9.10
2019-06-15T11:40:04.019Z,12.93
2019-06-15T11:46:38.452Z,13.08
2019-06-15T11:49:40.496Z,11.88
2019-06-15T11:52:40.639Z,12.65
2019-06-15T11:59:17.838Z,18.87
2019-06-15T12:02:24.605Z,19.15
2019-06-15T12:09:33.711Z,17.70
2019-06-15T12:29:53.025Z,21.85
2019-06-15T12:33:04.587Z,24.63
2019-06-15T12:36:18.115Z,21.20
2019-06-15T12:39:03.073Z,19.75
2019-06-15T12:42:01.472Z,19.92
2019-06-15T12:45:14.236Z,18.67
2019-06-15T12:48:08.924Z,17.75
2019-06-15T12:51:13.168Z,19.73
2019-06-15T12:54:09.122Z,17.75
2019-06-15T12:57:06.168Z,19.82
2019-06-15T13:00:02.612Z,18.27
2019-06-15T13:02:57.164Z,16.57
2019-06-15T13:08:55.280Z,14.58
2019-06-15T13:11:50.406Z,13.83
2019-06-15T13:14:45.186Z,13.72
2019-06-15T13:17:33.755Z,14.80
2019-06-15T13:20:33.194Z,16.00
2019-06-15T13:23:27.854Z,14.38
2019-06-15T13:26:22.330Z,14.98
2019-06-15T13:29:18.007Z,11.97
2019-06-15T13:32:14.074Z,12.33
2019-06-15T13:35:08.555Z,13.35
2019-06-15T13:43:53.767Z,13.85
2019-06-15T13:46:48.246Z,11.30
2019-06-15T13:49:42.587Z,10.93
2019-06-15T13:55:32.671Z,10.63
2019-06-15T13:58:27.238Z,10.72
2019-06-15T14:01:34.169Z,10.25
2019-06-15T14:04:27.068Z,10.38
2019-06-15T14:07:23.018Z,10.58
2019-06-15T14:16:14.532Z,8.83
2019-06-15T14:19:22.516Z,8.48
2019-06-15T14:22:18.660Z,9.25
2019-06-15T14:25:12.922Z,9.45
2019-06-15T14:28:08.932Z,9.73
2019-06-15T14:31:06.757Z,8.63
2019-06-15T14:34:01.617Z,7.90
2019-06-15T14:39:55.360Z,12.95
2019-06-15T14:42:49.755Z,13.15
2019-06-15T14:45:58.363Z,13.60
2019-06-15T14:48:41.321Z,16.82
2019-06-15T14:54:27.099Z,14.00
2019-06-15T14:57:21.400Z,16.35
2019-06-15T15:06:27.476Z,21.07
2019-06-15T15:12:52.065Z,18.52
2019-06-15T15:16:00.749Z,21.95
2019-06-15T15:18:56.723Z,19.48
2019-06-15T15:21:50.825Z,20.48
2019-06-15T15:24:45.003Z,16.85
2019-06-15T15:27:40.674Z,18.27
2019-06-15T15:30:42.982Z,17.62
2019-06-15T15:33:38.140Z,18.67
2019-06-15T15:39:51.488Z,21.30
2019-06-15T15:42:46.176Z,24.65
2019-06-15T15:45:43.115Z,23.62
2019-06-15T15:48:46.685Z,19.02
2019-06-15T15:51:40.128Z,20.15
2019-06-15T15:54:48.438Z,19.67
2019-06-15T15:57:49.480Z,22.98
2019-06-15T16:00:43.470Z,22.65
2019-06-15T16:06:29.159Z,13.05
2019-06-15T16:09:26.954Z,12.50
2019-06-15T16:12:19.657Z,12.47
2019-06-15T16:15:13.021Z,11.70
2019-06-15T16:18:07.334Z,10.25
2019-06-15T16:21:01.604Z,10.25
2019-06-15T16:23:58.426Z,11.45
2019-06-15T16:26:52.043Z,11.25
2019-06-15T16:29:47.157Z,11.05
2019-06-15T16:32:41.246Z,9.80
2019-06-15T16:35:36.284Z,11.10
2019-06-15T16:41:51.073Z,10.35
2019-06-15T16:44:39.639Z,9.75
2019-06-15T16:47:36.416Z,10.75
2019-06-15T16:50:46.974Z,9.95
2019-06-15T16:53:40.941Z,9.70
2019-06-15T16:56:36.133Z,12.30
2019-06-15T16:59:31.610Z,17.05
2019-06-15T17:02:26.161Z,14.03
2019-06-15T17:05:20.402Z,11.80
2019-06-15T17:08:28.249Z,11.88
2019-06-15T17:11:23.090Z,10.82
2019-06-15T17:14:17.523Z,9.90
2019-06-15T17:17:12.091Z,12.30
2019-06-15T17:20:10.766Z,9.43
2019-06-15T17:23:06.763Z,10.00
2019-06-15T17:26:00.687Z,9.65
2019-06-15T17:28:56.697Z,10.38
2019-06-15T17:31:53.617Z,9.68
2019-06-15T17:34:48.075Z,9.73
2019-06-15T17:37:42.320Z,9.55
2019-06-15T17:40:36.543Z,9.15
2019-06-15T17:43:30.881Z,11.60
2019-06-15T17:46:28.931Z,10.60
2019-06-15T17:52:12.773Z,9.20
2019-06-15T17:55:07.282Z,9.00
2019-06-15T17:58:01.817Z,9.65
2019-06-15T18:00:57.581Z,9.70
2019-06-15T18:03:54.575Z,10.93
2019-06-15T18:06:47.062Z,9.85
2019-06-15T18:09:41.502Z,11.35
2019-06-15T18:12:36.000Z,11.08
2019-06-15T18:15:30.406Z,10.43
2019-06-15T18:18:27.569Z,10.10
2019-06-15T18:21:20.106Z,9.85
2019-06-15T18:24:16.324Z,10.25
2019-06-15T18:27:10.407Z,10.08
2019-06-15T18:30:06.547Z,10.32
2019-06-15T18:32:59.853Z,10.13
2019-06-15T18:35:54.309Z,11.30
2019-06-15T18:38:48.449Z,10.05
2019-06-15T18:41:42.496Z,11.88
2019-06-15T18:47:33.044Z,13.70
2019-06-15T18:50:37.849Z,12.07
2019-06-15T18:53:35.465Z,11.73
2019-06-15T18:56:30.522Z,11.45
2019-06-15T18:59:26.086Z,10.35
2019-06-15T19:02:19.955Z,9.63
2019-06-15T19:05:16.781Z,9.68
2019-06-15T19:08:10.821Z,10.08
2019-06-15T19:11:07.085Z,10.35
2019-06-15T19:14:00.097Z,10.72
2019-06-15T19:16:56.524Z,13.30
2019-06-15T19:19:52.852Z,10.32
2019-06-15T19:26:12.642Z,10.40
2019-06-15T19:29:06.707Z,10.08
2019-06-15T19:32:01.252Z,10.50
2019-06-15T19:34:57.015Z,10.43
2019-06-15T19:37:50.390Z,10.30
2019-06-15T19:40:46.045Z,10.03
2019-06-15T19:43:46.609Z,10.38
2019-06-15T19:46:39.419Z,9.95
2019-06-15T19:49:36.341Z,10.03
2019-06-15T19:52:31.974Z,10.35
2019-06-15T19:55:26.975Z,10.38
2019-06-15T19:58:22.169Z,10.78
2019-06-15T20:01:12.565Z,10.20
2019-06-15T20:04:06.682Z,9.85
2019-06-15T20:10:26.634Z,10.15
2019-06-15T20:13:25.268Z,10.50
2019-06-15T20:16:21.898Z,11.65
2019-06-15T20:19:17.506Z,10.55
2019-06-15T20:22:13.770Z,10.93
2019-06-15T20:25:08.768Z,11.90
2019-06-15T20:28:07.342Z,10.25
2019-06-15T20:31:01.820Z,10.88
2019-06-15T20:33:57.573Z,10.35
2019-06-15T20:36:50.415Z,10.28
2019-06-15T20:39:46.756Z,10.45
2019-06-15T20:42:40.427Z,10.40
2019-06-15T20:45:36.966Z,11.48
2019-06-15T20:48:30.570Z,10.23
2019-06-15T20:51:25.008Z,11.20
2019-06-15T20:54:19.252Z,11.05
2019-06-15T20:57:13.529Z,10.98
2019-06-15T21:00:08.847Z,10.48
2019-06-15T21:03:03.314Z,10.98
2019-06-15T21:09:20.139Z,10.05
2019-06-15T21:12:31.268Z,9.50
2019-06-15T21:15:28.657Z,9.70
2019-06-15T21:18:26.079Z,9.30
2019-06-15T21:23:42.041Z,10.72
2019-06-15T21:26:36.950Z,9.78
2019-06-15T21:32:56.930Z,9.60
2019-06-15T21:35:52.711Z,9.90
2019-06-15T21:38:47.514Z,9.80
2019-06-15T21:41:43.010Z,9.80
2019-06-15T21:44:37.318Z,10.35
2019-06-15T21:47:31.562Z,10.30
2019-06-15T21:53:48.763Z,9.60
2019-06-15T21:56:42.840Z,10.30
2019-06-15T21:59:37.271Z,10.25
2019-06-15T22:02:31.851Z,9.90
2019-06-15T22:05:26.249Z,10.68
2019-06-15T22:08:20.700Z,10.35
2019-06-15T22:11:15.967Z,10.48
2019-06-15T22:14:10.621Z,10.25
2019-06-15T22:17:06.761Z,15.32
2019-06-15T22:20:06.751Z,11.78
2019-06-15T22:23:01.111Z,10.48
2019-06-15T22:25:57.030Z,11.40
2019-06-15T22:28:53.896Z,10.70
2019-06-15T22:31:47.052Z,10.82
2019-06-15T22:34:41.805Z,14.07
2019-06-15T22:37:36.456Z,11.28
2019-06-15T22:40:30.763Z,11.28
2019-06-15T22:43:27.316Z,11.45
2019-06-15T22:46:20.751Z,12.03
2019-06-15T22:49:16.159Z,10.98
2019-06-15T22:52:10.527Z,10.88
2019-06-15T22:55:06.046Z,12.25
2019-06-15T22:58:06.969Z,11.20
2019-06-15T23:01:01.479Z,10.28
2019-06-15T23:03:57.146Z,10.80
2019-06-15T23:06:51.670Z,10.93
2019-06-15T23:09:46.775Z,11.35
2019-06-15T23:12:41.246Z,10.93
2019-06-15T23:15:37.134Z,11.18
2019-06-15T23:18:31.220Z,11.68
2019-06-15T23:21:26.797Z,11.25
2019-06-15T23:24:21.162Z,11.57
2019-06-15T23:27:16.529Z,11.45
2019-06-15T23:30:11.446Z,11.73
2019-06-15T23:33:06.510Z,10.53
2019-06-15T23:36:06.364Z,11.03
2019-06-15T23:39:00.847Z,10.75
2019-06-15T23:41:56.866Z,10.80
2019-06-15T23:44:51.419Z,10.68
2019-06-15T23:47:47.069Z,10.50
2019-06-15T23:50:41.661Z,11.50
2019-06-15T23:53:36.775Z,13.43
2019-06-15T23:56:31.650Z,11.50
2019-06-15T23:59:26.424Z,10.78
